createdAt,value
2017-12-17T00:01:57.504Z,9.83
2017-12-17T00:06:59.121Z,8.90
2017-12-17T00:12:00.616Z,12.87
2017-12-17T00:17:02.125Z,11.20
2017-12-17T00:22:03.593Z,6.43
2017-12-17T00:27:05.123Z,12.97
2017-12-17T00:32:06.668Z,10.40
2017-12-17T00:37:08.176Z,10.13
2017-12-17T00:42:09.695Z,8.70
2017-12-17T00:47:11.202Z,6.87
2017-12-17T00:52:12.713Z,7.00
2017-12-17T00:57:14.989Z,9.47
2017-12-17T01:02:17.280Z,7.03
2017-12-17T01:07:19.544Z,6.90
2017-12-17T01:12:21.171Z,8.67
2017-12-17T01:17:22.685Z,11.20
2017-12-17T01:22:24.975Z,11.90
2017-12-17T01:27:26.520Z,9.70
2017-12-17T01:32:28.027Z,9.03
2017-12-17T01:37:30.283Z,8.70
2017-12-17T01:42:31.813Z,9.80
2017-12-17T01:47:33.354Z,8.80
2017-12-17T01:52:34.856Z,8.00
2017-12-17T01:57:36.361Z,6.90
2017-12-17T02:02:37.886Z,8.73
2017-12-17T02:07:39.461Z,7.03
2017-12-17T02:12:40.964Z,9.23
2017-12-17T02:17:42.502Z,5.87
2017-12-17T02:22:43.989Z,7.10
2017-12-17T02:27:45.504Z,14.93
2017-12-17T02:32:46.986Z,8.40
2017-12-17T02:37:48.479Z,5.33
2017-12-17T02:42:50.021Z,7.37
2017-12-17T02:47:51.543Z,5.83
2017-12-17T02:52:53.864Z,8.07
2017-12-17T02:57:55.422Z,8.63
2017-12-17T03:02:56.928Z,8.67
2017-12-17T03:07:58.514Z,6.67
2017-12-17T03:13:00.042Z,9.67
2017-12-17T03:18:01.679Z,7.83
2017-12-17T03:23:03.949Z,10.13
2017-12-17T03:28:06.488Z,7.50
2017-12-17T03:33:08.012Z,7.70
2017-12-17T03:38:10.249Z,9.53
2017-12-17T03:43:11.723Z,9.40
2017-12-17T03:48:13.232Z,6.67
2017-12-17T03:53:14.806Z,12.13
2017-12-17T03:58:17.062Z,9.13
2017-12-17T04:03:18.562Z,9.13
2017-12-17T04:08:20.829Z,10.60
2017-12-17T04:13:22.467Z,9.50
2017-12-17T04:18:24.030Z,9.70
2017-12-17T04:23:25.531Z,6.73
2017-12-17T04:28:27.007Z,10.40
2017-12-17T04:33:29.275Z,9.50
2017-12-17T04:38:30.753Z,12.27
2017-12-17T04:43:33.008Z,7.30
2017-12-17T04:48:34.509Z,10.10
2017-12-17T04:53:36.724Z,14.33
2017-12-17T04:58:38.248Z,12.63
2017-12-17T05:03:39.736Z,9.80
2017-12-17T05:08:42.013Z,11.77
2017-12-17T05:13:44.478Z,10.53
2017-12-17T05:18:45.995Z,9.23
2017-12-17T05:23:47.528Z,8.03
2017-12-17T05:28:49.066Z,4.73
2017-12-17T05:33:50.683Z,11.60
2017-12-17T05:38:52.922Z,13.73
2017-12-17T05:43:54.472Z,11.90
2017-12-17T05:48:55.983Z,12.90
2017-12-17T05:53:57.511Z,8.00
2017-12-17T05:58:59.042Z,13.33
2017-12-17T06:04:00.552Z,5.37
2017-12-17T06:09:02.143Z,7.33
2017-12-17T06:14:03.663Z,8.03
2017-12-17T06:19:05.130Z,4.03
2017-12-17T06:24:06.626Z,12.43
2017-12-17T06:29:08.142Z,5.50
2017-12-17T06:34:09.761Z,6.70
2017-12-17T06:39:11.251Z,9.57
2017-12-17T06:44:12.836Z,5.03
2017-12-17T06:49:22.080Z,6.00
2017-12-17T06:54:23.708Z,10.37
2017-12-17T06:59:25.229Z,8.80
2017-12-17T07:04:27.456Z,7.07
2017-12-17T07:09:28.994Z,10.13
2017-12-17T07:14:30.493Z,10.03
2017-12-17T07:19:31.992Z,4.67
2017-12-17T07:24:33.511Z,7.30
2017-12-17T07:29:35.092Z,13.67
2017-12-17T07:34:36.608Z,4.97
2017-12-17T07:39:39.001Z,6.30
2017-12-17T07:44:41.256Z,8.50
2017-12-17T07:49:42.829Z,8.80
2017-12-17T07:54:44.284Z,7.67
2017-12-17T07:59:45.878Z,7.63
2017-12-17T08:04:48.217Z,7.60
2017-12-17T08:09:49.800Z,10.00
2017-12-17T08:14:51.336Z,7.27
2017-12-17T08:19:52.910Z,6.20
2017-12-17T08:24:54.422Z,8.13
2017-12-17T08:29:55.950Z,14.13
2017-12-17T08:34:57.420Z,6.17
2017-12-17T08:39:59.010Z,13.90
2017-12-17T08:45:00.516Z,10.87
2017-12-17T08:50:02.779Z,11.47
2017-12-17T08:55:04.447Z,8.80
2017-12-17T09:00:05.968Z,8.60
2017-12-17T09:05:07.514Z,9.10
2017-12-17T09:10:09.776Z,14.50
2017-12-17T09:15:11.391Z,9.20
2017-12-17T09:20:12.889Z,10.97
2017-12-17T09:25:14.448Z,10.37
2017-12-17T09:30:15.958Z,9.63
2017-12-17T09:35:18.223Z,12.63
2017-12-17T09:40:19.737Z,6.37
2017-12-17T09:45:21.281Z,14.17
2017-12-17T09:50:23.556Z,11.60
2017-12-17T09:55:25.763Z,13.07
2017-12-17T10:00:27.380Z,15.30
2017-12-17T10:05:28.905Z,11.23
2017-12-17T10:10:30.401Z,12.87
2017-12-17T10:15:32.018Z,8.33
2017-12-17T10:20:33.564Z,9.67
2017-12-17T10:25:35.153Z,9.83
2017-12-17T10:30:37.436Z,11.10
2017-12-17T10:35:39.735Z,17.40
2017-12-17T10:40:41.248Z,11.50
2017-12-17T10:45:42.753Z,10.33
2017-12-17T10:50:44.278Z,10.67
2017-12-17T10:55:45.838Z,7.10
2017-12-17T11:00:47.357Z,24.53
2017-12-17T11:05:49.681Z,14.23
2017-12-17T11:10:51.170Z,9.00
2017-12-17T11:15:52.710Z,8.53
2017-12-17T11:20:54.364Z,6.37
2017-12-17T11:25:56.632Z,10.37
2017-12-17T11:30:58.920Z,15.07
2017-12-17T11:36:01.167Z,10.40
2017-12-17T11:41:02.712Z,9.00
2017-12-17T11:46:04.293Z,9.40
2017-12-17T11:51:05.856Z,12.13
2017-12-17T11:56:07.483Z,10.77
2017-12-17T12:01:09.748Z,8.60
2017-12-17T12:06:11.214Z,14.40
2017-12-17T12:11:12.767Z,10.60
2017-12-17T12:16:14.293Z,15.63
2017-12-17T12:21:15.849Z,25.73
2017-12-17T12:26:17.352Z,12.97
2017-12-17T12:31:18.879Z,10.57
2017-12-17T12:36:20.396Z,11.60
2017-12-17T12:41:21.900Z,19.93
2017-12-17T12:46:24.152Z,10.90
2017-12-17T12:51:25.881Z,14.57
2017-12-17T12:56:27.555Z,12.27
2017-12-17T13:01:29.136Z,11.73
2017-12-17T13:06:30.734Z,12.87
2017-12-17T13:11:32.266Z,7.70
2017-12-17T13:16:33.808Z,9.80
2017-12-17T13:21:35.302Z,15.40
2017-12-17T13:26:36.870Z,11.77
2017-12-17T13:31:38.398Z,11.43
2017-12-17T13:36:40.653Z,10.60
2017-12-17T13:41:42.162Z,26.33
2017-12-17T13:46:43.731Z,9.57
2017-12-17T13:51:45.394Z,12.03
2017-12-17T13:56:47.705Z,12.17
2017-12-17T14:01:49.226Z,8.97
2017-12-17T14:06:50.928Z,16.00
2017-12-17T14:11:52.449Z,11.37
2017-12-17T14:16:53.950Z,12.73
2017-12-17T14:21:56.220Z,15.57
2017-12-17T14:26:58.426Z,12.50
2017-12-17T14:31:59.972Z,14.53
2017-12-17T14:37:01.505Z,14.13
2017-12-17T14:42:03.031Z,9.50
2017-12-17T14:47:04.706Z,25.07
2017-12-17T14:52:06.236Z,12.37
2017-12-17T14:57:07.830Z,13.10
2017-12-17T15:02:10.128Z,11.20
2017-12-17T15:07:11.676Z,16.63
2017-12-17T15:12:13.181Z,12.43
2017-12-17T15:17:14.701Z,14.37
2017-12-17T15:22:16.961Z,20.40
2017-12-17T15:27:18.473Z,23.20
2017-12-17T15:32:20.002Z,18.40
2017-12-17T15:37:21.504Z,13.23
2017-12-17T15:42:22.981Z,13.53
2017-12-17T15:47:24.533Z,7.93
2017-12-17T15:52:26.811Z,11.10
2017-12-17T15:57:29.110Z,16.13
2017-12-17T16:02:30.742Z,19.07
2017-12-17T16:07:32.237Z,19.30
2017-12-17T16:12:34.527Z,30.60
2017-12-17T16:17:36.067Z,19.70
2017-12-17T16:22:37.660Z,15.90
2017-12-17T16:27:39.165Z,19.33
2017-12-17T16:32:40.681Z,26.80
2017-12-17T16:43:28.562Z,29.13
2017-12-17T16:48:30.096Z,29.23
2017-12-17T16:53:31.548Z,23.30
2017-12-17T16:58:33.050Z,16.73
2017-12-17T17:03:35.528Z,25.33
2017-12-17T17:08:37.129Z,15.10
2017-12-17T17:13:38.674Z,23.37
2017-12-17T17:18:40.355Z,17.93
2017-12-17T17:23:41.879Z,22.97
2017-12-17T17:28:43.456Z,24.80
2017-12-17T17:33:45.136Z,20.80
2017-12-17T17:38:46.678Z,20.20
2017-12-17T17:43:48.299Z,21.93
2017-12-17T17:48:49.924Z,22.10
2017-12-17T17:53:51.524Z,29.00
2017-12-17T17:58:53.135Z,23.97
2017-12-17T18:03:55.432Z,23.20
2017-12-17T18:08:57.023Z,25.20
2017-12-17T18:13:58.491Z,19.23
2017-12-17T18:19:00.046Z,22.17
2017-12-17T18:24:01.585Z,25.80
2017-12-17T18:29:03.883Z,31.77
2017-12-17T18:34:05.459Z,30.77
2017-12-17T18:39:07.101Z,36.63
2017-12-17T18:44:09.393Z,25.03
2017-12-17T18:49:11.722Z,23.70
2017-12-17T18:54:13.300Z,25.70
2017-12-17T18:59:14.851Z,30.43
2017-12-17T19:04:16.507Z,21.47
2017-12-17T19:09:18.145Z,24.17
2017-12-17T19:14:20.459Z,19.63
2017-12-17T19:19:21.973Z,22.60
2017-12-17T19:24:23.517Z,28.33
2017-12-17T19:29:25.069Z,23.90
2017-12-17T19:34:26.581Z,25.50
2017-12-17T19:39:28.227Z,34.43
2017-12-17T19:44:29.733Z,33.80
2017-12-17T19:49:32.167Z,27.23
2017-12-17T19:54:33.684Z,27.73
2017-12-17T19:59:35.214Z,25.40
2017-12-17T20:04:36.700Z,30.00
2017-12-17T20:09:38.229Z,29.77
2017-12-17T20:14:39.796Z,27.90
2017-12-17T20:19:41.330Z,27.17
2017-12-17T20:24:43.647Z,28.20
2017-12-17T20:29:45.952Z,33.23
2017-12-17T20:34:47.440Z,25.37
2017-12-17T20:39:48.974Z,29.23
2017-12-17T20:44:50.499Z,35.10
2017-12-17T20:49:52.092Z,26.67
2017-12-17T20:54:53.665Z,33.17
2017-12-17T20:59:55.234Z,30.00
2017-12-17T21:04:56.805Z,35.43
2017-12-17T21:09:58.369Z,41.63
2017-12-17T21:15:01.305Z,30.60
2017-12-17T21:20:02.951Z,39.77
2017-12-17T21:25:04.473Z,37.47
2017-12-17T21:30:06.111Z,32.23
2017-12-17T21:35:07.703Z,33.87
2017-12-17T21:40:09.277Z,36.10
2017-12-17T21:45:10.852Z,33.33
2017-12-17T21:50:13.187Z,26.80
2017-12-17T21:55:14.715Z,29.93
2017-12-17T22:00:16.988Z,39.23
2017-12-17T22:05:18.619Z,29.43
2017-12-17T22:10:20.307Z,34.43
2017-12-17T22:15:21.862Z,36.33
2017-12-17T22:20:23.443Z,36.40
2017-12-17T22:25:24.999Z,29.73
2017-12-17T22:30:26.531Z,29.27
2017-12-17T22:35:28.069Z,29.83
2017-12-17T22:40:29.615Z,30.87
2017-12-17T22:45:31.268Z,35.40
2017-12-17T22:50:32.806Z,32.67
2017-12-17T22:55:34.335Z,27.60
2017-12-17T23:00:42.924Z,32.07
2017-12-17T23:05:44.512Z,35.00
2017-12-17T23:10:46.070Z,32.67
2017-12-17T23:15:47.614Z,34.47
2017-12-17T23:20:49.125Z,34.70
2017-12-17T23:25:50.689Z,43.30
2017-12-17T23:30:52.325Z,40.13
2017-12-17T23:35:53.886Z,42.87
2017-12-17T23:40:55.389Z,35.97
2017-12-17T23:45:56.926Z,43.23
2017-12-17T23:50:58.450Z,46.63
2017-12-17T23:56:00.000Z,39.97
